sensor_id;sensor_type;location;lat;lon;timestamp;temperature;humidity
77865;DHT22;67061;48.524;9.040;2023-05-10T00:01:57;12.60;99.90
77865;DHT22;67061;48.524;9.040;2023-05-10T00:04:24;12.60;99.90
77865;DHT22;67061;48.524;9.040;2023-05-10T00:06:53;12.50;99.90
77865;DHT22;67061;48.524;9.040;2023-05-10T00:09:20;12.60;99.90
77865;DHT22;67061;48.524;9.040;2023-05-10T00:11:48;12.50;99.90
77865;DHT22;67061;48.524;9.040;2023-05-10T00:14:15;12.50;99.90
77865;DHT22;67061;48.524;9.040;2023-05-10T00:16:42;12.50;99.90
77865;DHT22;67061;48.524;9.040;2023-05-10T00:19:09;12.50;99.90
77865;DHT22;67061;48.524;9.040;2023-05-10T00:21:36;12.50;99.90
77865;DHT22;67061;48.524;9.040;2023-05-10T00:24:04;12.50;99.90
77865;DHT22;67061;48.524;9.040;2023-05-10T00:26:31;12.50;99.90
77865;DHT22;67061;48.524;9.040;2023-05-10T00:28:59;12.50;99.90
77865;DHT22;67061;48.524;9.040;2023-05-10T00:31:26;12.40;99.90
77865;DHT22;67061;48.524;9.040;2023-05-10T00:33:54;12.30;99.90
77865;DHT22;67061;48.524;9.040;2023-05-10T00:36:21;12.30;99.90
77865;DHT22;67061;48.524;9.040;2023-05-10T00:38:48;12.20;99.90
77865;DHT22;67061;48.524;9.040;2023-05-10T00:41:15;12.20;99.90
77865;DHT22;67061;48.524;9.040;2023-05-10T00:43:42;12.20;99.90
77865;DHT22;67061;48.524;9.040;2023-05-10T00:46:10;12.10;99.90
77865;DHT22;67061;48.524;9.040;2023-05-10T00:48:38;12.10;99.90
77865;DHT22;67061;48.524;9.040;2023-05-10T00:51:05;12.10;99.90
77865;DHT22;67061;48.524;9.040;2023-05-10T00:53:32;12.10;99.90
77865;DHT22;67061;48.524;9.040;2023-05-10T00:56:00;12.10;99.90
77865;DHT22;67061;48.524;9.040;2023-05-10T00:58:28;12.10;99.90
77865;DHT22;67061;48.524;9.040;2023-05-10T01:00:56;12.10;99.90
77865;DHT22;67061;48.524;9.040;2023-05-10T01:03:25;12.10;99.90
77865;DHT22;67061;48.524;9.040;2023-05-10T01:05:52;12.10;99.90
77865;DHT22;67061;48.524;9.040;2023-05-10T01:08:19;12.00;99.90
77865;DHT22;67061;48.524;9.040;2023-05-10T01:10:46;12.00;99.90
77865;DHT22;67061;48.524;9.040;2023-05-10T01:13:23;12.00;99.90
77865;DHT22;67061;48.524;9.040;2023-05-10T01:15:52;12.00;99.90
77865;DHT22;67061;48.524;9.040;2023-05-10T01:18:20;12.00;99.90
77865;DHT22;67061;48.524;9.040;2023-05-10T01:20:55;12.00;99.90
77865;DHT22;67061;48.524;9.040;2023-05-10T01:23:44;12.00;99.90
77865;DHT22;67061;48.524;9.040;2023-05-10T01:26:29;11.90;99.90
77865;DHT22;67061;48.524;9.040;2023-05-10T01:29:18;11.90;99.90
77865;DHT22;67061;48.524;9.040;2023-05-10T01:32:15;11.90;99.90
77865;DHT22;67061;48.524;9.040;2023-05-10T01:34:49;11.90;99.90
77865;DHT22;67061;48.524;9.040;2023-05-10T01:37:28;11.90;99.90
77865;DHT22;67061;48.524;9.040;2023-05-10T01:40:02;11.80;99.90
77865;DHT22;67061;48.524;9.040;2023-05-10T01:42:36;11.90;99.90
77865;DHT22;67061;48.524;9.040;2023-05-10T01:45:13;11.90;99.90
77865;DHT22;67061;48.524;9.040;2023-05-10T01:47:43;11.80;99.90
77865;DHT22;67061;48.524;9.040;2023-05-10T01:50:15;11.80;99.90
77865;DHT22;67061;48.524;9.040;2023-05-10T01:52:47;11.70;99.90
77865;DHT22;67061;48.524;9.040;2023-05-10T01:55:18;11.70;99.90
77865;DHT22;67061;48.524;9.040;2023-05-10T01:57:49;11.70;99.90
77865;DHT22;67061;48.524;9.040;2023-05-10T02:00:18;11.70;99.90
77865;DHT22;67061;48.524;9.040;2023-05-10T02:02:51;11.70;99.90
77865;DHT22;67061;48.524;9.040;2023-05-10T02:05:19;11.70;99.90
77865;DHT22;67061;48.524;9.040;2023-05-10T02:07:47;11.70;99.90
77865;DHT22;67061;48.524;9.040;2023-05-10T02:10:15;11.70;99.90
77865;DHT22;67061;48.524;9.040;2023-05-10T02:12:44;11.60;99.90
77865;DHT22;67061;48.524;9.040;2023-05-10T02:15:15;11.60;99.90
77865;DHT22;67061;48.524;9.040;2023-05-10T02:17:42;11.50;99.90
77865;DHT22;67061;48.524;9.040;2023-05-10T02:20:11;11.50;99.90
77865;DHT22;67061;48.524;9.040;2023-05-10T02:22:40;11.50;99.90
77865;DHT22;67061;48.524;9.040;2023-05-10T02:25:08;11.50;99.90
77865;DHT22;67061;48.524;9.040;2023-05-10T02:27:36;11.50;99.90
77865;DHT22;67061;48.524;9.040;2023-05-10T02:30:05;11.50;99.90
77865;DHT22;67061;48.524;9.040;2023-05-10T02:32:33;11.50;99.90
77865;DHT22;67061;48.524;9.040;2023-05-10T02:35:01;11.50;99.90
77865;DHT22;67061;48.524;9.040;2023-05-10T02:37:30;11.50;99.90
77865;DHT22;67061;48.524;9.040;2023-05-10T02:39:58;11.50;99.90
77865;DHT22;67061;48.524;9.040;2023-05-10T02:42:27;11.50;99.90
77865;DHT22;67061;48.524;9.040;2023-05-10T02:44:59;11.50;99.90
77865;DHT22;67061;48.524;9.040;2023-05-10T02:47:27;11.50;99.90
77865;DHT22;67061;48.524;9.040;2023-05-10T02:49:54;11.40;99.90
77865;DHT22;67061;48.524;9.040;2023-05-10T02:52:24;11.40;99.90
77865;DHT22;67061;48.524;9.040;2023-05-10T02:54:55;11.40;99.90
77865;DHT22;67061;48.524;9.040;2023-05-10T02:57:27;11.30;99.90
77865;DHT22;67061;48.524;9.040;2023-05-10T02:59:55;11.30;99.90
77865;DHT22;67061;48.524;9.040;2023-05-10T03:02:22;11.30;99.90
77865;DHT22;67061;48.524;9.040;2023-05-10T03:04:48;11.20;99.90
77865;DHT22;67061;48.524;9.040;2023-05-10T03:07:16;11.10;99.90
77865;DHT22;67061;48.524;9.040;2023-05-10T03:09:45;11.10;99.90
77865;DHT22;67061;48.524;9.040;2023-05-10T03:12:18;11.10;99.90
77865;DHT22;67061;48.524;9.040;2023-05-10T03:14:53;11.10;99.90
77865;DHT22;67061;48.524;9.040;2023-05-10T03:17:25;11.10;99.90
77865;DHT22;67061;48.524;9.040;2023-05-10T03:19:57;11.10;99.90
77865;DHT22;67061;48.524;9.040;2023-05-10T03:22:27;11.00;99.90
77865;DHT22;67061;48.524;9.040;2023-05-10T03:24:56;11.00;99.90
77865;DHT22;67061;48.524;9.040;2023-05-10T03:27:27;11.00;99.90
77865;DHT22;67061;48.524;9.040;2023-05-10T03:29:55;11.10;99.90
77865;DHT22;67061;48.524;9.040;2023-05-10T03:32:22;11.10;99.90
77865;DHT22;67061;48.524;9.040;2023-05-10T03:34:49;11.10;99.90
77865;DHT22;67061;48.524;9.040;2023-05-10T03:37:16;11.10;99.90
77865;DHT22;67061;48.524;9.040;2023-05-10T03:39:43;11.10;99.90
77865;DHT22;67061;48.524;9.040;2023-05-10T03:42:10;11.10;99.90
77865;DHT22;67061;48.524;9.040;2023-05-10T03:44:39;11.10;99.90
77865;DHT22;67061;48.524;9.040;2023-05-10T03:47:06;11.10;99.90
77865;DHT22;67061;48.524;9.040;2023-05-10T03:49:33;11.10;99.90
77865;DHT22;67061;48.524;9.040;2023-05-10T03:52:00;11.10;99.90
77865;DHT22;67061;48.524;9.040;2023-05-10T03:54:27;11.10;99.90
77865;DHT22;67061;48.524;9.040;2023-05-10T03:56:53;11.10;99.90
77865;DHT22;67061;48.524;9.040;2023-05-10T03:59:20;11.10;99.90
77865;DHT22;67061;48.524;9.040;2023-05-10T04:01:49;11.10;99.90
77865;DHT22;67061;48.524;9.040;2023-05-10T04:04:16;11.10;99.90
77865;DHT22;67061;48.524;9.040;2023-05-10T04:06:44;11.10;99.90
77865;DHT22;67061;48.524;9.040;2023-05-10T04:09:11;11.10;99.90
77865;DHT22;67061;48.524;9.040;2023-05-10T04:11:38;11.10;99.90
77865;DHT22;67061;48.524;9.040;2023-05-10T04:14:05;11.10;99.90
77865;DHT22;67061;48.524;9.040;2023-05-10T04:16:31;11.10;99.90
77865;DHT22;67061;48.524;9.040;2023-05-10T04:19:00;11.10;99.90
77865;DHT22;67061;48.524;9.040;2023-05-10T04:21:27;11.10;99.90
77865;DHT22;67061;48.524;9.040;2023-05-10T04:23:54;11.20;99.90
77865;DHT22;67061;48.524;9.040;2023-05-10T04:26:20;11.10;99.90
77865;DHT22;67061;48.524;9.040;2023-05-10T04:28:47;11.20;99.90
77865;DHT22;67061;48.524;9.040;2023-05-10T04:31:14;11.20;99.90
77865;DHT22;67061;48.524;9.040;2023-05-10T04:33:41;11.20;99.90
77865;DHT22;67061;48.524;9.040;2023-05-10T04:36:09;11.30;99.90
77865;DHT22;67061;48.524;9.040;2023-05-10T04:38:36;11.30;99.90
77865;DHT22;67061;48.524;9.040;2023-05-10T04:41:04;11.20;99.90
77865;DHT22;67061;48.524;9.040;2023-05-10T04:43:32;11.20;99.90
77865;DHT22;67061;48.524;9.040;2023-05-10T04:45:59;11.20;99.90
77865;DHT22;67061;48.524;9.040;2023-05-10T04:48:25;11.30;99.90
77865;DHT22;67061;48.524;9.040;2023-05-10T04:50:52;11.30;99.90
77865;DHT22;67061;48.524;9.040;2023-05-10T04:53:21;11.30;99.90
77865;DHT22;67061;48.524;9.040;2023-05-10T04:55:48;11.30;99.90
77865;DHT22;67061;48.524;9.040;2023-05-10T04:58:15;11.30;99.90
77865;DHT22;67061;48.524;9.040;2023-05-10T05:00:42;11.30;99.90
77865;DHT22;67061;48.524;9.040;2023-05-10T05:03:09;11.30;99.90
77865;DHT22;67061;48.524;9.040;2023-05-10T05:05:36;11.30;99.90
77865;DHT22;67061;48.524;9.040;2023-05-10T05:08:03;11.30;99.90
77865;DHT22;67061;48.524;9.040;2023-05-10T05:10:31;11.40;99.90
77865;DHT22;67061;48.524;9.040;2023-05-10T05:12:58;11.40;99.90
77865;DHT22;67061;48.524;9.040;2023-05-10T05:15:25;11.40;99.90
77865;DHT22;67061;48.524;9.040;2023-05-10T05:17:53;11.30;99.90
77865;DHT22;67061;48.524;9.040;2023-05-10T05:20:20;11.30;99.90
77865;DHT22;67061;48.524;9.040;2023-05-10T05:22:47;11.30;99.90
77865;DHT22;67061;48.524;9.040;2023-05-10T05:25:14;11.30;99.90
77865;DHT22;67061;48.524;9.040;2023-05-10T05:27:43;11.30;99.90
77865;DHT22;67061;48.524;9.040;2023-05-10T05:30:10;11.30;99.90
77865;DHT22;67061;48.524;9.040;2023-05-10T05:32:38;11.30;99.90
77865;DHT22;67061;48.524;9.040;2023-05-10T05:35:05;11.30;99.90
77865;DHT22;67061;48.524;9.040;2023-05-10T05:37:32;11.30;99.90
77865;DHT22;67061;48.524;9.040;2023-05-10T05:39:59;11.30;99.90
77865;DHT22;67061;48.524;9.040;2023-05-10T05:42:27;11.30;99.90
77865;DHT22;67061;48.524;9.040;2023-05-10T05:44:55;11.30;99.90
77865;DHT22;67061;48.524;9.040;2023-05-10T05:47:22;11.30;99.90
77865;DHT22;67061;48.524;9.040;2023-05-10T05:49:49;11.40;99.90
77865;DHT22;67061;48.524;9.040;2023-05-10T05:52:16;11.40;99.90
77865;DHT22;67061;48.524;9.040;2023-05-10T05:54:43;11.40;99.90
77865;DHT22;67061;48.524;9.040;2023-05-10T05:57:10;11.50;99.90
77865;DHT22;67061;48.524;9.040;2023-05-10T05:59:37;11.40;99.90
77865;DHT22;67061;48.524;9.040;2023-05-10T06:02:08;11.50;99.90
77865;DHT22;67061;48.524;9.040;2023-05-10T06:04:35;11.50;99.90
77865;DHT22;67061;48.524;9.040;2023-05-10T06:07:02;11.50;99.90
77865;DHT22;67061;48.524;9.040;2023-05-10T06:09:29;11.50;99.90
77865;DHT22;67061;48.524;9.040;2023-05-10T06:11:56;11.50;99.90
77865;DHT22;67061;48.524;9.040;2023-05-10T06:14:23;11.60;99.90
77865;DHT22;67061;48.524;9.040;2023-05-10T06:16:50;11.70;99.90
77865;DHT22;67061;48.524;9.040;2023-05-10T06:19:18;11.70;99.90
77865;DHT22;67061;48.524;9.040;2023-05-10T06:21:45;11.80;99.90
77865;DHT22;67061;48.524;9.040;2023-05-10T06:24:12;11.90;99.90
77865;DHT22;67061;48.524;9.040;2023-05-10T06:26:39;11.90;99.90
77865;DHT22;67061;48.524;9.040;2023-05-10T06:29:06;11.90;99.90
77865;DHT22;67061;48.524;9.040;2023-05-10T06:31:32;11.90;99.90
77865;DHT22;67061;48.524;9.040;2023-05-10T06:33:59;12.00;99.90
77865;DHT22;67061;48.524;9.040;2023-05-10T06:36:28;12.00;99.90
77865;DHT22;67061;48.524;9.040;2023-05-10T06:38:55;12.00;99.90
77865;DHT22;67061;48.524;9.040;2023-05-10T06:41:22;12.10;99.90
77865;DHT22;67061;48.524;9.040;2023-05-10T06:43:49;12.00;99.90
77865;DHT22;67061;48.524;9.040;2023-05-10T06:46:16;12.10;99.90
77865;DHT22;67061;48.524;9.040;2023-05-10T06:48:43;12.10;99.90
77865;DHT22;67061;48.524;9.040;2023-05-10T06:51:10;12.00;99.90
77865;DHT22;67061;48.524;9.040;2023-05-10T06:53:38;11.90;99.90
77865;DHT22;67061;48.524;9.040;2023-05-10T06:56:05;11.90;99.90
77865;DHT22;67061;48.524;9.040;2023-05-10T06:58:32;11.80;99.90
77865;DHT22;67061;48.524;9.040;2023-05-10T07:01:02;11.90;99.90
77865;DHT22;67061;48.524;9.040;2023-05-10T07:03:29;11.90;99.90
77865;DHT22;67061;48.524;9.040;2023-05-10T07:06:00;11.90;99.90
77865;DHT22;67061;48.524;9.040;2023-05-10T07:08:29;11.90;99.90
77865;DHT22;67061;48.524;9.040;2023-05-10T07:11:01;11.90;99.90
77865;DHT22;67061;48.524;9.040;2023-05-10T07:13:29;11.90;99.90
77865;DHT22;67061;48.524;9.040;2023-05-10T07:15:56;11.90;99.90
77865;DHT22;67061;48.524;9.040;2023-05-10T07:18:24;11.90;99.90
77865;DHT22;67061;48.524;9.040;2023-05-10T07:20:50;11.90;99.90
77865;DHT22;67061;48.524;9.040;2023-05-10T07:23:19;11.90;99.90
77865;DHT22;67061;48.524;9.040;2023-05-10T07:25:46;11.90;99.90
77865;DHT22;67061;48.524;9.040;2023-05-10T07:28:14;12.00;99.90
77865;DHT22;67061;48.524;9.040;2023-05-10T07:30:42;12.00;99.90
77865;DHT22;67061;48.524;9.040;2023-05-10T07:33:10;12.00;99.90
77865;DHT22;67061;48.524;9.040;2023-05-10T07:35:37;12.00;99.90
77865;DHT22;67061;48.524;9.040;2023-05-10T07:38:04;12.10;99.90
77865;DHT22;67061;48.524;9.040;2023-05-10T07:40:31;12.10;99.90
77865;DHT22;67061;48.524;9.040;2023-05-10T07:42:58;12.20;99.90
77865;DHT22;67061;48.524;9.040;2023-05-10T07:45:28;12.20;99.90
77865;DHT22;67061;48.524;9.040;2023-05-10T07:47:55;12.20;99.90
77865;DHT22;67061;48.524;9.040;2023-05-10T07:50:22;12.30;99.90
77865;DHT22;67061;48.524;9.040;2023-05-10T07:52:49;12.20;99.90
77865;DHT22;67061;48.524;9.040;2023-05-10T07:55:18;12.30;99.90
77865;DHT22;67061;48.524;9.040;2023-05-10T07:57:45;12.20;99.90
77865;DHT22;67061;48.524;9.040;2023-05-10T08:00:13;12.30;99.90
77865;DHT22;67061;48.524;9.040;2023-05-10T08:02:44;12.30;99.90
77865;DHT22;67061;48.524;9.040;2023-05-10T08:05:11;12.40;99.90
77865;DHT22;67061;48.524;9.040;2023-05-10T08:07:39;12.50;99.90
77865;DHT22;67061;48.524;9.040;2023-05-10T08:10:07;12.50;99.90
77865;DHT22;67061;48.524;9.040;2023-05-10T08:12:34;12.50;99.90
77865;DHT22;67061;48.524;9.040;2023-05-10T08:15:01;12.50;99.90
77865;DHT22;67061;48.524;9.040;2023-05-10T08:17:28;12.50;99.90
77865;DHT22;67061;48.524;9.040;2023-05-10T08:19:57;12.50;99.90
77865;DHT22;67061;48.524;9.040;2023-05-10T08:22:24;12.50;99.90
77865;DHT22;67061;48.524;9.040;2023-05-10T08:24:51;12.50;99.90
77865;DHT22;67061;48.524;9.040;2023-05-10T08:27:18;12.70;99.90
77865;DHT22;67061;48.524;9.040;2023-05-10T08:29:45;12.70;99.90
77865;DHT22;67061;48.524;9.040;2023-05-10T08:32:12;12.80;99.90
77865;DHT22;67061;48.524;9.040;2023-05-10T08:34:39;12.90;99.90
77865;DHT22;67061;48.524;9.040;2023-05-10T08:37:07;12.90;99.90
77865;DHT22;67061;48.524;9.040;2023-05-10T08:39:36;13.00;99.70
77865;DHT22;67061;48.524;9.040;2023-05-10T08:42:05;13.00;99.90
77865;DHT22;67061;48.524;9.040;2023-05-10T08:44:32;13.10;99.90
77865;DHT22;67061;48.524;9.040;2023-05-10T08:47:04;13.10;97.50
77865;DHT22;67061;48.524;9.040;2023-05-10T08:49:33;13.30;99.90
77865;DHT22;67061;48.524;9.040;2023-05-10T08:52:03;13.30;98.00
77865;DHT22;67061;48.524;9.040;2023-05-10T08:54:33;13.30;97.60
77865;DHT22;67061;48.524;9.040;2023-05-10T08:57:00;13.40;95.50
77865;DHT22;67061;48.524;9.040;2023-05-10T08:59:27;13.40;95.60
77865;DHT22;67061;48.524;9.040;2023-05-10T09:01:57;13.40;93.00
77865;DHT22;67061;48.524;9.040;2023-05-10T09:04:25;13.30;94.00
77865;DHT22;67061;48.524;9.040;2023-05-10T09:06:53;13.30;92.50
77865;DHT22;67061;48.524;9.040;2023-05-10T09:09:21;13.30;92.70
77865;DHT22;67061;48.524;9.040;2023-05-10T09:11:51;13.40;91.30
77865;DHT22;67061;48.524;9.040;2023-05-10T09:14:20;13.50;93.10
77865;DHT22;67061;48.524;9.040;2023-05-10T09:16:47;13.50;91.20
77865;DHT22;67061;48.524;9.040;2023-05-10T09:19:14;13.60;89.80
77865;DHT22;67061;48.524;9.040;2023-05-10T09:21:41;13.60;90.30
77865;DHT22;67061;48.524;9.040;2023-05-10T09:24:08;13.60;89.50
77865;DHT22;67061;48.524;9.040;2023-05-10T09:26:35;13.70;91.10
77865;DHT22;67061;48.524;9.040;2023-05-10T09:29:13;13.80;87.20
77865;DHT22;67061;48.524;9.040;2023-05-10T09:31:44;13.90;87.30
77865;DHT22;67061;48.524;9.040;2023-05-10T09:34:17;13.90;85.80
77865;DHT22;67061;48.524;9.040;2023-05-10T09:36:54;14.00;88.10
77865;DHT22;67061;48.524;9.040;2023-05-10T09:39:30;14.10;87.30
77865;DHT22;67061;48.524;9.040;2023-05-10T09:41:58;14.20;84.90
77865;DHT22;67061;48.524;9.040;2023-05-10T09:44:27;14.30;85.90
77865;DHT22;67061;48.524;9.040;2023-05-10T09:46:54;14.40;83.70
77865;DHT22;67061;48.524;9.040;2023-05-10T09:49:21;14.40;83.80
77865;DHT22;67061;48.524;9.040;2023-05-10T09:52:00;14.40;82.80
77865;DHT22;67061;48.524;9.040;2023-05-10T09:54:27;14.40;85.00
77865;DHT22;67061;48.524;9.040;2023-05-10T09:56:54;14.50;86.00
77865;DHT22;67061;48.524;9.040;2023-05-10T09:59:21;14.50;82.80
77865;DHT22;67061;48.524;9.040;2023-05-10T10:01:51;14.50;82.70
77865;DHT22;67061;48.524;9.040;2023-05-10T10:04:18;14.40;85.00
77865;DHT22;67061;48.524;9.040;2023-05-10T10:06:46;14.40;83.40
77865;DHT22;67061;48.524;9.040;2023-05-10T10:09:14;14.30;87.20
77865;DHT22;67061;48.524;9.040;2023-05-10T10:11:41;14.30;89.80
77865;DHT22;67061;48.524;9.040;2023-05-10T10:14:08;14.20;91.20
77865;DHT22;67061;48.524;9.040;2023-05-10T10:16:35;14.20;91.40
77865;DHT22;67061;48.524;9.040;2023-05-10T10:19:03;14.10;88.00
77865;DHT22;67061;48.524;9.040;2023-05-10T10:21:31;14.00;88.20
77865;DHT22;67061;48.524;9.040;2023-05-10T10:23:59;14.10;90.70
77865;DHT22;67061;48.524;9.040;2023-05-10T10:26:26;14.20;91.70
77865;DHT22;67061;48.524;9.040;2023-05-10T10:29:09;14.40;87.20
77865;DHT22;67061;48.524;9.040;2023-05-10T10:31:41;14.50;88.40
77865;DHT22;67061;48.524;9.040;2023-05-10T10:34:22;14.60;87.70
77865;DHT22;67061;48.524;9.040;2023-05-10T10:36:51;14.70;87.40
77865;DHT22;67061;48.524;9.040;2023-05-10T10:39:20;14.80;84.80
77865;DHT22;67061;48.524;9.040;2023-05-10T10:41:51;15.00;84.30
77865;DHT22;67061;48.524;9.040;2023-05-10T10:44:36;15.00;83.20
77865;DHT22;67061;48.524;9.040;2023-05-10T10:47:06;15.00;81.60
77865;DHT22;67061;48.524;9.040;2023-05-10T10:49:43;15.00;85.50
77865;DHT22;67061;48.524;9.040;2023-05-10T10:52:15;15.00;84.10
77865;DHT22;67061;48.524;9.040;2023-05-10T10:54:49;15.00;86.70
77865;DHT22;67061;48.524;9.040;2023-05-10T10:57:19;14.80;81.90
77865;DHT22;67061;48.524;9.040;2023-05-10T10:59:47;14.60;82.80
77865;DHT22;67061;48.524;9.040;2023-05-10T11:02:34;14.40;81.60
77865;DHT22;67061;48.524;9.040;2023-05-10T11:05:24;14.00;80.60
77865;DHT22;67061;48.524;9.040;2023-05-10T11:07:52;13.70;79.60
77865;DHT22;67061;48.524;9.040;2023-05-10T11:10:19;13.60;82.10
77865;DHT22;67061;48.524;9.040;2023-05-10T11:12:55;13.60;82.90
77865;DHT22;67061;48.524;9.040;2023-05-10T11:15:30;13.70;79.80
77865;DHT22;67061;48.524;9.040;2023-05-10T11:17:57;13.70;81.40
77865;DHT22;67061;48.524;9.040;2023-05-10T11:20:27;13.70;82.00
77865;DHT22;67061;48.524;9.040;2023-05-10T11:23:11;13.70;80.60
77865;DHT22;67061;48.524;9.040;2023-05-10T11:25:42;13.70;79.50
77865;DHT22;67061;48.524;9.040;2023-05-10T11:28:10;13.80;80.60
77865;DHT22;67061;48.524;9.040;2023-05-10T11:30:38;13.60;79.10
77865;DHT22;67061;48.524;9.040;2023-05-10T11:33:06;13.50;77.30
77865;DHT22;67061;48.524;9.040;2023-05-10T11:35:38;13.30;77.10
77865;DHT22;67061;48.524;9.040;2023-05-10T11:38:06;13.30;79.70
77865;DHT22;67061;48.524;9.040;2023-05-10T11:40:34;13.20;81.00
77865;DHT22;67061;48.524;9.040;2023-05-10T11:43:02;13.10;84.00
77865;DHT22;67061;48.524;9.040;2023-05-10T11:45:29;13.10;84.60
77865;DHT22;67061;48.524;9.040;2023-05-10T11:47:59;13.10;83.70
77865;DHT22;67061;48.524;9.040;2023-05-10T11:50:26;13.10;84.70
77865;DHT22;67061;48.524;9.040;2023-05-10T11:52:55;13.10;83.60
77865;DHT22;67061;48.524;9.040;2023-05-10T11:55:22;13.10;84.40
77865;DHT22;67061;48.524;9.040;2023-05-10T11:57:52;13.20;85.90
77865;DHT22;67061;48.524;9.040;2023-05-10T12:00:20;13.30;84.30
77865;DHT22;67061;48.524;9.040;2023-05-10T12:02:47;13.50;84.40
77865;DHT22;67061;48.524;9.040;2023-05-10T12:05:14;13.70;83.30
77865;DHT22;67061;48.524;9.040;2023-05-10T12:07:41;13.90;82.50
77865;DHT22;67061;48.524;9.040;2023-05-10T12:10:11;14.10;79.70
77865;DHT22;67061;48.524;9.040;2023-05-10T12:12:40;14.10;79.90
77865;DHT22;67061;48.524;9.040;2023-05-10T12:15:12;14.20;81.70
77865;DHT22;67061;48.524;9.040;2023-05-10T12:17:39;14.30;80.50
77865;DHT22;67061;48.524;9.040;2023-05-10T12:20:17;14.40;79.50
77865;DHT22;67061;48.524;9.040;2023-05-10T12:22:45;14.30;84.00
77865;DHT22;67061;48.524;9.040;2023-05-10T12:25:14;14.40;84.60
77865;DHT22;67061;48.524;9.040;2023-05-10T12:27:48;14.20;83.90
77865;DHT22;67061;48.524;9.040;2023-05-10T12:30:20;14.10;87.60
77865;DHT22;67061;48.524;9.040;2023-05-10T12:32:47;14.00;82.70
77865;DHT22;67061;48.524;9.040;2023-05-10T12:35:14;13.90;80.70
77865;DHT22;67061;48.524;9.040;2023-05-10T12:37:42;13.90;82.40
77865;DHT22;67061;48.524;9.040;2023-05-10T12:40:10;13.90;82.00
77865;DHT22;67061;48.524;9.040;2023-05-10T12:42:39;13.80;82.80
77865;DHT22;67061;48.524;9.040;2023-05-10T12:45:08;13.90;79.90
77865;DHT22;67061;48.524;9.040;2023-05-10T12:47:35;13.90;81.00
77865;DHT22;67061;48.524;9.040;2023-05-10T12:50:03;13.90;78.00
77865;DHT22;67061;48.524;9.040;2023-05-10T12:52:31;14.00;79.40
77865;DHT22;67061;48.524;9.040;2023-05-10T12:54:58;14.10;82.70
77865;DHT22;67061;48.524;9.040;2023-05-10T12:57:25;14.20;77.00
77865;DHT22;67061;48.524;9.040;2023-05-10T12:59:54;14.20;78.60
77865;DHT22;67061;48.524;9.040;2023-05-10T13:02:21;14.30;76.30
77865;DHT22;67061;48.524;9.040;2023-05-10T13:04:49;14.40;79.50
77865;DHT22;67061;48.524;9.040;2023-05-10T13:07:16;14.50;78.70
77865;DHT22;67061;48.524;9.040;2023-05-10T13:09:42;14.50;79.60
77865;DHT22;67061;48.524;9.040;2023-05-10T13:12:10;14.60;75.70
77865;DHT22;67061;48.524;9.040;2023-05-10T13:14:36;14.60;76.40
77865;DHT22;67061;48.524;9.040;2023-05-10T13:17:07;14.70;75.00
77865;DHT22;67061;48.524;9.040;2023-05-10T13:19:34;14.80;76.60
77865;DHT22;67061;48.524;9.040;2023-05-10T13:22:01;14.90;75.60
77865;DHT22;67061;48.524;9.040;2023-05-10T13:24:28;15.00;78.40
77865;DHT22;67061;48.524;9.040;2023-05-10T13:26:55;15.10;77.80
77865;DHT22;67061;48.524;9.040;2023-05-10T13:29:22;15.30;80.00
77865;DHT22;67061;48.524;9.040;2023-05-10T13:31:48;15.30;79.20
77865;DHT22;67061;48.524;9.040;2023-05-10T13:34:17;15.40;78.90
77865;DHT22;67061;48.524;9.040;2023-05-10T13:36:46;15.40;75.10
77865;DHT22;67061;48.524;9.040;2023-05-10T13:39:13;15.50;76.00
77865;DHT22;67061;48.524;9.040;2023-05-10T13:41:40;15.40;74.20
77865;DHT22;67061;48.524;9.040;2023-05-10T13:44:07;15.40;73.90
77865;DHT22;67061;48.524;9.040;2023-05-10T13:46:34;15.30;73.30
77865;DHT22;67061;48.524;9.040;2023-05-10T13:49:01;15.30;75.60
77865;DHT22;67061;48.524;9.040;2023-05-10T13:51:29;15.30;73.70
77865;DHT22;67061;48.524;9.040;2023-05-10T13:53:57;15.30;77.60
77865;DHT22;67061;48.524;9.040;2023-05-10T13:56:24;15.30;75.50
77865;DHT22;67061;48.524;9.040;2023-05-10T13:58:51;15.30;76.20
77865;DHT22;67061;48.524;9.040;2023-05-10T14:01:18;15.30;73.80
77865;DHT22;67061;48.524;9.040;2023-05-10T14:03:45;15.20;73.70
77865;DHT22;67061;48.524;9.040;2023-05-10T14:06:11;15.10;74.10
77865;DHT22;67061;48.524;9.040;2023-05-10T14:08:40;15.10;75.70
77865;DHT22;67061;48.524;9.040;2023-05-10T14:11:07;15.20;74.20
77865;DHT22;67061;48.524;9.040;2023-05-10T14:13:34;15.10;75.70
77865;DHT22;67061;48.524;9.040;2023-05-10T14:16:01;15.20;76.20
77865;DHT22;67061;48.524;9.040;2023-05-10T14:18:27;15.20;76.20
77865;DHT22;67061;48.524;9.040;2023-05-10T14:20:54;15.00;72.40
77865;DHT22;67061;48.524;9.040;2023-05-10T14:23:22;15.00;77.70
77865;DHT22;67061;48.524;9.040;2023-05-10T14:25:51;15.20;76.50
77865;DHT22;67061;48.524;9.040;2023-05-10T14:28:19;15.30;72.30
77865;DHT22;67061;48.524;9.040;2023-05-10T14:30:46;15.10;74.20
77865;DHT22;67061;48.524;9.040;2023-05-10T14:33:13;15.20;75.00
77865;DHT22;67061;48.524;9.040;2023-05-10T14:35:40;15.20;72.90
77865;DHT22;67061;48.524;9.040;2023-05-10T14:38:07;15.20;74.20
77865;DHT22;67061;48.524;9.040;2023-05-10T14:40:34;15.10;73.50
77865;DHT22;67061;48.524;9.040;2023-05-10T14:43:02;15.20;74.80
77865;DHT22;67061;48.524;9.040;2023-05-10T14:45:30;15.20;75.50
77865;DHT22;67061;48.524;9.040;2023-05-10T14:47:57;15.20;74.90
77865;DHT22;67061;48.524;9.040;2023-05-10T14:50:24;15.30;78.00
77865;DHT22;67061;48.524;9.040;2023-05-10T14:52:51;15.40;76.20
77865;DHT22;67061;48.524;9.040;2023-05-10T14:55:18;15.50;78.10
77865;DHT22;67061;48.524;9.040;2023-05-10T14:57:45;15.50;75.20
77865;DHT22;67061;48.524;9.040;2023-05-10T15:00:17;15.50;74.70
77865;DHT22;67061;48.524;9.040;2023-05-10T15:02:44;15.40;73.40
77865;DHT22;67061;48.524;9.040;2023-05-10T15:05:11;15.50;73.70
77865;DHT22;67061;48.524;9.040;2023-05-10T15:07:38;15.50;74.50
77865;DHT22;67061;48.524;9.040;2023-05-10T15:10:06;15.40;73.40
77865;DHT22;67061;48.524;9.040;2023-05-10T15:12:33;15.40;75.40
77865;DHT22;67061;48.524;9.040;2023-05-10T15:15:00;15.50;73.60
77865;DHT22;67061;48.524;9.040;2023-05-10T15:17:29;15.40;71.70
77865;DHT22;67061;48.524;9.040;2023-05-10T15:19:55;15.30;74.20
77865;DHT22;67061;48.524;9.040;2023-05-10T15:22:22;15.30;72.40
77865;DHT22;67061;48.524;9.040;2023-05-10T15:24:49;15.30;70.70
77865;DHT22;67061;48.524;9.040;2023-05-10T15:27:16;15.30;72.50
77865;DHT22;67061;48.524;9.040;2023-05-10T15:29:43;15.40;70.90
77865;DHT22;67061;48.524;9.040;2023-05-10T15:32:10;15.50;71.10
77865;DHT22;67061;48.524;9.040;2023-05-10T15:34:39;15.60;69.20
77865;DHT22;67061;48.524;9.040;2023-05-10T15:37:06;15.50;67.70
77865;DHT22;67061;48.524;9.040;2023-05-10T15:39:33;15.60;66.50